createdAt,value
2022-11-15T00:00:15.349Z,2.50
2022-11-15T00:02:44.985Z,2.50
2022-11-15T00:05:13.255Z,2.50
2022-11-15T00:07:55.168Z,2.50
2022-11-15T00:10:24.104Z,2.50
2022-11-15T00:12:52.375Z,2.50
2022-11-15T00:15:20.602Z,2.50
2022-11-15T00:18:15.952Z,2.50
2022-11-15T00:20:44.546Z,2.50
2022-11-15T00:23:13.173Z,2.40
2022-11-15T00:25:41.676Z,2.40
2022-11-15T00:28:10.017Z,2.40
2022-11-15T00:30:38.262Z,2.40
2022-11-15T00:33:07.234Z,2.40
2022-11-15T00:35:37.212Z,2.50
2022-11-15T00:38:05.543Z,2.50
2022-11-15T00:40:33.758Z,2.50
2022-11-15T00:43:02.026Z,2.50
2022-11-15T00:45:30.230Z,2.50
2022-11-15T00:47:58.486Z,2.40
2022-11-15T00:50:26.740Z,2.40
2022-11-15T00:52:56.381Z,2.40
2022-11-15T00:55:24.584Z,2.40
2022-11-15T00:57:52.792Z,2.40
2022-11-15T01:00:21.191Z,2.40
2022-11-15T01:02:49.983Z,2.40
2022-11-15T01:05:18.377Z,2.40
2022-11-15T01:07:46.616Z,2.40
2022-11-15T01:10:16.387Z,2.40
2022-11-15T01:12:44.614Z,2.50
2022-11-15T01:15:13.030Z,2.40
2022-11-15T01:17:41.332Z,2.40
2022-11-15T01:20:41.659Z,2.40
2022-11-15T01:23:09.937Z,2.30
2022-11-15T01:25:39.538Z,2.30
2022-11-15T01:28:33.395Z,2.30
2022-11-15T01:31:02.042Z,2.30
2022-11-15T01:33:31.108Z,2.20
2022-11-15T01:35:59.482Z,2.10
2022-11-15T01:38:27.673Z,2.20
2022-11-15T01:40:57.272Z,2.20
2022-11-15T01:43:27.748Z,2.20
2022-11-15T01:46:02.499Z,2.20
2022-11-15T01:48:34.310Z,2.20
2022-11-15T01:51:06.746Z,2.20
2022-11-15T01:53:37.427Z,2.20
2022-11-15T01:56:10.472Z,2.20
2022-11-15T01:58:43.267Z,2.10
2022-11-15T02:01:11.861Z,2.10
2022-11-15T02:04:12.163Z,2.10
2022-11-15T02:06:41.919Z,2.20
2022-11-15T02:09:10.170Z,2.10
2022-11-15T02:11:39.881Z,2.20
2022-11-15T02:14:09.269Z,2.20
2022-11-15T02:16:45.681Z,2.10
2022-11-15T02:19:29.020Z,2.10
2022-11-15T02:22:29.813Z,2.10
2022-11-15T02:25:23.283Z,2.10
2022-11-15T02:28:18.300Z,2.00
2022-11-15T02:30:52.127Z,2.00
2022-11-15T02:33:33.172Z,2.00
2022-11-15T02:36:04.297Z,2.00
2022-11-15T02:38:40.043Z,2.00
2022-11-15T02:41:26.108Z,1.90
2022-11-15T02:44:22.656Z,1.90
2022-11-15T02:47:13.705Z,1.90
2022-11-15T02:49:45.707Z,2.00
2022-11-15T02:52:18.119Z,2.00
2022-11-15T02:54:56.236Z,2.00
2022-11-15T02:57:41.604Z,2.00
2022-11-15T03:00:11.375Z,1.90
2022-11-15T03:02:52.697Z,1.90
2022-11-15T03:05:27.278Z,1.90
2022-11-15T03:08:02.941Z,1.80
2022-11-15T03:10:38.135Z,1.90
2022-11-15T03:13:19.244Z,1.90
2022-11-15T03:15:55.458Z,1.90
2022-11-15T03:18:32.106Z,1.90
2022-11-15T03:21:26.255Z,1.90
2022-11-15T03:23:56.608Z,2.00
2022-11-15T03:26:27.172Z,2.10
2022-11-15T03:28:59.543Z,2.00
2022-11-15T03:31:51.173Z,2.00
2022-11-15T03:34:28.178Z,2.00
2022-11-15T03:36:56.773Z,2.10
2022-11-15T03:39:26.713Z,2.10
2022-11-15T03:42:06.132Z,2.10
2022-11-15T03:44:43.696Z,2.10
2022-11-15T03:47:16.145Z,2.10
2022-11-15T03:49:53.191Z,2.10
2022-11-15T03:52:22.544Z,2.20
2022-11-15T03:54:53.208Z,2.30
2022-11-15T03:57:21.425Z,2.30
2022-11-15T03:59:49.623Z,2.40
2022-11-15T04:02:17.946Z,2.40
2022-11-15T04:04:47.542Z,2.50
2022-11-15T04:07:15.862Z,2.50
2022-11-15T04:09:58.101Z,2.60
2022-11-15T04:12:32.661Z,2.60
2022-11-15T04:15:11.654Z,2.70
2022-11-15T04:17:41.893Z,2.60
2022-11-15T04:20:31.675Z,2.60
2022-11-15T04:23:19.099Z,2.60
2022-11-15T04:25:48.161Z,2.70
2022-11-15T04:28:16.483Z,2.80
2022-11-15T04:30:44.716Z,2.70
2022-11-15T04:33:12.988Z,2.80
2022-11-15T04:36:18.004Z,2.80
2022-11-15T04:38:46.276Z,2.80
2022-11-15T04:41:14.475Z,2.80
2022-11-15T04:43:42.650Z,2.80
2022-11-15T04:46:10.923Z,2.80
2022-11-15T04:48:39.144Z,2.80
2022-11-15T04:51:14.897Z,2.90
2022-11-15T04:53:43.090Z,2.90
2022-11-15T04:56:11.466Z,2.90
2022-11-15T04:58:39.791Z,3.00
2022-11-15T05:01:10.116Z,3.00
2022-11-15T05:03:56.244Z,3.00
2022-11-15T05:06:25.843Z,3.00
2022-11-15T05:08:54.515Z,3.00
2022-11-15T05:11:22.935Z,3.00
2022-11-15T05:13:51.634Z,3.10
2022-11-15T05:16:19.833Z,3.10
2022-11-15T05:19:13.116Z,3.20
2022-11-15T05:21:42.829Z,3.20
2022-11-15T05:24:12.432Z,3.20
2022-11-15T05:26:40.647Z,3.20
2022-11-15T05:29:08.919Z,3.20
2022-11-15T05:31:42.485Z,3.20
2022-11-15T05:34:10.834Z,3.30
2022-11-15T05:36:40.278Z,3.30
2022-11-15T05:39:10.177Z,3.30
2022-11-15T05:41:42.131Z,3.20
2022-11-15T05:44:13.705Z,3.30
2022-11-15T05:46:44.290Z,3.30
2022-11-15T05:49:15.305Z,3.40
2022-11-15T05:51:46.279Z,3.40
2022-11-15T05:54:16.461Z,3.50
2022-11-15T05:56:45.573Z,3.50
2022-11-15T05:59:14.146Z,3.50
2022-11-15T06:01:42.798Z,3.60
2022-11-15T06:04:11.114Z,3.60
2022-11-15T06:06:39.412Z,3.60
2022-11-15T06:09:10.924Z,3.60
2022-11-15T06:11:40.526Z,3.70
2022-11-15T06:14:08.979Z,3.70
2022-11-15T06:16:37.256Z,3.80
2022-11-15T06:19:05.636Z,3.80
2022-11-15T06:21:33.843Z,3.80
2022-11-15T06:24:02.317Z,3.90
2022-11-15T06:26:30.527Z,3.90
2022-11-15T06:41:02.874Z,3.90
2022-11-15T06:43:56.252Z,4.20
2022-11-15T06:46:24.825Z,4.30
2022-11-15T06:48:53.432Z,4.30
2022-11-15T06:51:22.132Z,4.40
2022-11-15T06:53:50.376Z,4.40
2022-11-15T06:56:20.007Z,4.50
2022-11-15T06:58:54.468Z,4.50
2022-11-15T07:01:22.853Z,4.60
2022-11-15T07:03:51.130Z,4.60
2022-11-15T07:06:19.367Z,4.70
2022-11-15T07:08:47.625Z,4.70
2022-11-15T07:11:15.835Z,4.70
2022-11-15T07:13:45.404Z,4.70
2022-11-15T07:16:13.743Z,4.70
2022-11-15T07:18:42.694Z,4.70
2022-11-15T07:21:12.298Z,4.70
2022-11-15T07:23:41.137Z,4.70
2022-11-15T07:26:10.158Z,4.70
2022-11-15T07:28:38.835Z,4.80
2022-11-15T07:31:10.172Z,4.80
2022-11-15T07:33:38.472Z,4.80
2022-11-15T07:36:08.331Z,4.80
2022-11-15T07:38:42.468Z,4.90
2022-11-15T07:41:11.795Z,4.90
2022-11-15T07:43:40.009Z,4.90
2022-11-15T07:46:10.894Z,4.90
2022-11-15T07:48:45.263Z,5.00
2022-11-15T07:51:15.356Z,5.00
2022-11-15T07:53:43.831Z,5.00
2022-11-15T07:56:12.760Z,5.00
2022-11-15T07:58:41.152Z,5.00
2022-11-15T08:01:14.307Z,5.00
2022-11-15T08:03:42.684Z,5.10
2022-11-15T08:06:10.919Z,5.10
2022-11-15T08:08:39.115Z,5.20
2022-11-15T08:11:07.336Z,5.20
2022-11-15T08:13:35.799Z,5.20
2022-11-15T08:16:06.431Z,5.30
2022-11-15T08:18:36.530Z,5.30
2022-11-15T08:21:05.680Z,5.30
2022-11-15T08:23:34.134Z,5.40
2022-11-15T08:26:08.323Z,5.30
2022-11-15T08:28:36.536Z,5.30
2022-11-15T08:31:05.666Z,5.40
2022-11-15T08:33:35.980Z,5.50
2022-11-15T08:36:04.455Z,5.50
2022-11-15T08:38:33.204Z,5.50
2022-11-15T08:41:04.756Z,5.50
2022-11-15T08:43:33.368Z,5.50
2022-11-15T08:49:10.855Z,5.50
2022-11-15T08:51:39.069Z,5.50
2022-11-15T08:54:07.393Z,5.50
2022-11-15T08:56:35.671Z,5.40
2022-11-15T08:59:03.877Z,5.40
2022-11-15T09:01:33.660Z,5.40
2022-11-15T09:04:01.953Z,5.40
2022-11-15T09:06:31.662Z,5.30
2022-11-15T09:09:00.167Z,5.20
2022-11-15T09:11:28.434Z,5.30
2022-11-15T09:13:57.018Z,5.30
2022-11-15T09:16:25.327Z,5.30
2022-11-15T09:19:18.329Z,5.40
2022-11-15T09:21:47.908Z,5.50
2022-11-15T09:24:16.270Z,5.50
2022-11-15T09:29:30.078Z,5.70
2022-11-15T09:31:58.267Z,5.80
2022-11-15T09:34:41.274Z,5.80
2022-11-15T09:37:10.848Z,5.90
2022-11-15T09:39:39.068Z,5.90
2022-11-15T09:42:28.056Z,6.00
2022-11-15T09:45:15.226Z,6.10
2022-11-15T09:48:09.416Z,6.10
2022-11-15T10:01:43.937Z,6.20
2022-11-15T10:04:12.417Z,6.20
2022-11-15T10:06:46.792Z,6.20
2022-11-15T10:09:23.927Z,6.00
2022-11-15T10:11:52.539Z,5.90
2022-11-15T10:14:23.084Z,5.90
2022-11-15T10:17:11.665Z,5.90
2022-11-15T10:19:52.804Z,6.00
2022-11-15T10:22:29.180Z,6.00
2022-11-15T10:25:13.598Z,6.00
2022-11-15T10:27:42.903Z,6.00
2022-11-15T10:30:17.857Z,6.00
2022-11-15T10:32:50.369Z,6.10
2022-11-15T10:35:27.350Z,6.10
2022-11-15T10:38:08.519Z,6.20
2022-11-15T10:43:31.811Z,6.30
2022-11-15T10:46:45.037Z,6.30
2022-11-15T10:49:17.175Z,6.40
2022-11-15T10:51:50.020Z,6.40
2022-11-15T10:54:24.860Z,6.40
2022-11-15T10:56:55.381Z,6.50
2022-11-15T10:59:28.094Z,6.60
2022-11-15T11:02:32.389Z,6.50
2022-11-15T11:05:02.838Z,6.60
2022-11-15T11:07:32.952Z,6.60
2022-11-15T11:13:24.047Z,6.80
2022-11-15T11:15:57.164Z,6.80
2022-11-15T11:18:30.773Z,6.90
2022-11-15T11:21:05.554Z,6.90
2022-11-15T11:23:48.939Z,6.90
2022-11-15T11:26:37.811Z,6.80
2022-11-15T11:29:29.432Z,6.90
2022-11-15T11:32:05.281Z,7.00
2022-11-15T11:34:44.562Z,7.10
2022-11-15T11:37:23.012Z,7.30
2022-11-15T11:40:07.509Z,7.50
2022-11-15T11:43:10.922Z,7.60
2022-11-15T11:45:52.598Z,7.80
2022-11-15T11:48:35.017Z,8.10
2022-11-15T11:51:10.404Z,8.30
2022-11-15T11:54:06.151Z,8.40
2022-11-15T11:56:36.855Z,8.70
2022-11-15T11:59:14.736Z,8.90
2022-11-15T12:01:53.442Z,8.90
2022-11-15T12:04:51.089Z,8.90
2022-11-15T12:07:25.231Z,9.00
2022-11-15T12:10:00.598Z,9.10
2022-11-15T12:12:37.194Z,9.20
2022-11-15T12:15:13.538Z,9.30
2022-11-15T12:17:43.487Z,9.50
2022-11-15T12:20:19.996Z,9.50
2022-11-15T12:22:56.380Z,9.60
2022-11-15T12:25:31.364Z,9.60
2022-11-15T12:28:15.745Z,9.70
2022-11-15T12:30:50.978Z,9.60
2022-11-15T12:33:34.184Z,9.60
2022-11-15T12:36:04.199Z,9.60
2022-11-15T12:38:55.720Z,9.70
2022-11-15T12:42:14.821Z,9.70
2022-11-15T12:45:02.189Z,9.70
2022-11-15T12:47:30.412Z,9.80
2022-11-15T12:49:58.610Z,9.80
2022-11-15T12:52:26.888Z,9.90
2022-11-15T12:55:05.279Z,9.90
2022-11-15T12:57:44.261Z,9.90
2022-11-15T13:00:50.008Z,9.80
2022-11-15T13:03:27.052Z,9.80
2022-11-15T13:06:46.330Z,9.80
2022-11-15T13:09:56.018Z,9.80
2022-11-15T13:12:53.402Z,9.80
2022-11-15T13:15:47.270Z,9.70
2022-11-15T13:18:42.188Z,9.60
2022-11-15T13:22:08.638Z,9.50
2022-11-15T13:24:40.783Z,9.40
2022-11-15T13:27:17.932Z,9.40
2022-11-15T13:29:46.336Z,9.40
2022-11-15T13:32:15.968Z,9.40
2022-11-15T13:34:52.816Z,9.30
2022-11-15T13:37:33.536Z,9.20
2022-11-15T13:40:20.967Z,9.10
2022-11-15T13:42:49.845Z,9.00
2022-11-15T13:45:19.988Z,8.90
2022-11-15T13:47:54.608Z,8.90
2022-11-15T13:50:29.666Z,8.90
2022-11-15T13:53:01.093Z,8.90
2022-11-15T13:55:30.757Z,8.90
2022-11-15T13:58:00.958Z,8.90
2022-11-15T14:00:35.075Z,8.90
2022-11-15T14:03:15.470Z,8.90
2022-11-15T14:05:45.322Z,8.90
2022-11-15T14:08:25.410Z,8.90
2022-11-15T14:11:11.761Z,8.80
2022-11-15T14:13:40.212Z,8.80
2022-11-15T14:16:20.417Z,8.70
2022-11-15T14:18:50.372Z,8.70
2022-11-15T14:21:29.266Z,8.70
2022-11-15T14:24:18.472Z,8.60
2022-11-15T14:26:47.272Z,8.60
2022-11-15T14:29:40.698Z,8.50
2022-11-15T14:32:15.523Z,8.40
2022-11-15T14:34:43.901Z,8.30
2022-11-15T14:37:22.806Z,8.20
2022-11-15T14:39:51.342Z,8.10
2022-11-15T14:42:20.312Z,8.10
2022-11-15T14:44:48.932Z,8.00
2022-11-15T14:47:17.628Z,7.90
2022-11-15T14:49:46.528Z,7.80
2022-11-15T14:52:32.650Z,7.70
2022-11-15T14:55:03.309Z,7.60
2022-11-15T14:57:32.190Z,7.60
2022-11-15T15:00:00.653Z,7.50
2022-11-15T15:02:29.520Z,7.50
2022-11-15T15:05:02.091Z,7.40
2022-11-15T15:07:31.835Z,7.40
2022-11-15T15:10:24.860Z,7.40
2022-11-15T15:12:48.601Z,7.30
2022-11-15T15:15:20.610Z,7.30
2022-11-15T15:17:48.920Z,7.20
2022-11-15T15:20:17.857Z,7.10
2022-11-15T15:22:47.696Z,7.10
2022-11-15T15:25:24.129Z,7.00
2022-11-15T15:27:52.415Z,7.00
2022-11-15T15:30:20.903Z,6.90
2022-11-15T15:32:49.192Z,6.80
2022-11-15T15:35:18.864Z,6.80
2022-11-15T15:37:49.912Z,6.80
2022-11-15T15:40:21.032Z,6.80
2022-11-15T15:42:49.588Z,6.80
2022-11-15T15:45:18.705Z,6.80
2022-11-15T15:47:48.060Z,6.80
2022-11-15T15:50:24.041Z,6.80
2022-11-15T15:52:55.412Z,6.70
2022-11-15T15:55:24.388Z,6.70
2022-11-15T15:57:52.861Z,6.60
2022-11-15T16:00:22.314Z,6.60
2022-11-15T16:02:50.597Z,6.50
2022-11-15T16:05:19.391Z,6.50
2022-11-15T16:07:48.892Z,6.40
2022-11-15T16:10:27.044Z,6.40
2022-11-15T16:12:56.663Z,6.40
2022-11-15T16:15:26.726Z,6.30
2022-11-15T16:17:56.951Z,6.30
2022-11-15T16:20:37.497Z,6.30
2022-11-15T16:23:09.366Z,6.20
2022-11-15T16:25:58.262Z,6.20
2022-11-15T16:28:28.514Z,6.10
2022-11-15T16:31:08.272Z,6.00
2022-11-15T16:34:30.678Z,6.00
2022-11-15T16:36:59.907Z,5.90
2022-11-15T16:39:30.866Z,5.90
2022-11-15T16:42:00.874Z,5.80
2022-11-15T16:44:30.376Z,5.70
2022-11-15T16:46:58.576Z,5.80
2022-11-15T16:49:26.904Z,5.70
2022-11-15T16:51:55.117Z,5.60
2022-11-15T16:54:23.440Z,5.50
2022-11-15T16:56:51.719Z,5.50
2022-11-15T16:59:21.399Z,5.40
2022-11-15T17:01:51.759Z,5.40
2022-11-15T17:04:45.363Z,5.40
2022-11-15T17:07:13.671Z,5.30
2022-11-15T17:09:41.987Z,5.40
2022-11-15T17:12:11.727Z,5.40
2022-11-15T17:14:41.407Z,5.30
2022-11-15T17:17:10.852Z,5.10
2022-11-15T17:19:39.202Z,5.10
2022-11-15T17:22:07.427Z,5.00
2022-11-15T17:24:35.722Z,5.00
2022-11-15T17:27:07.417Z,5.00
2022-11-15T17:29:35.854Z,5.00
2022-11-15T17:32:05.695Z,5.00
2022-11-15T17:34:33.879Z,4.90
2022-11-15T17:37:02.332Z,4.90
2022-11-15T17:39:30.757Z,4.80
2022-11-15T17:41:59.179Z,4.70
2022-11-15T17:44:27.587Z,4.70
2022-11-15T17:46:55.858Z,4.60
2022-11-15T17:49:25.624Z,4.50
2022-11-15T17:51:54.720Z,4.60
2022-11-15T17:54:22.998Z,4.50
2022-11-15T17:56:51.191Z,4.60
2022-11-15T17:59:21.784Z,4.50
2022-11-15T18:01:50.399Z,4.40
2022-11-15T18:04:18.744Z,4.40
2022-11-15T18:06:48.648Z,4.30
2022-11-15T18:09:16.931Z,4.30
2022-11-15T18:11:50.536Z,4.30
2022-11-15T18:14:20.603Z,4.20
2022-11-15T18:16:49.171Z,4.20
2022-11-15T18:19:17.441Z,4.20
2022-11-15T18:21:57.368Z,4.20
2022-11-15T18:24:26.510Z,4.20
2022-11-15T18:26:54.951Z,4.20
2022-11-15T18:29:24.579Z,4.20
2022-11-15T18:31:55.721Z,4.20
2022-11-15T18:34:24.852Z,4.10
2022-11-15T18:36:54.696Z,4.10
2022-11-15T18:39:23.011Z,4.10
2022-11-15T18:41:52.219Z,4.20
2022-11-15T18:44:20.663Z,4.10
2022-11-15T18:46:49.690Z,4.10
2022-11-15T18:49:19.746Z,4.10
2022-11-15T18:51:48.918Z,4.10
2022-11-15T18:54:19.018Z,4.10
2022-11-15T18:56:47.604Z,4.00
2022-11-15T18:59:16.309Z,4.10
2022-11-15T19:01:48.614Z,4.00
2022-11-15T19:04:18.728Z,3.90
2022-11-15T19:06:49.043Z,3.90
2022-11-15T19:09:20.272Z,3.90
2022-11-15T19:11:51.514Z,3.90
2022-11-15T19:14:24.253Z,3.90
2022-11-15T19:16:53.198Z,3.80
2022-11-15T19:19:23.413Z,3.80
2022-11-15T19:22:11.094Z,3.80
2022-11-15T19:24:40.753Z,3.90
2022-11-15T19:27:09.337Z,3.80
2022-11-15T19:29:37.581Z,3.70
2022-11-15T19:32:06.399Z,3.70
2022-11-15T19:34:34.723Z,3.70
2022-11-15T19:37:03.404Z,3.70
2022-11-15T19:39:31.773Z,3.70
2022-11-15T19:42:27.217Z,3.80
2022-11-15T19:44:55.541Z,3.80
2022-11-15T19:47:25.865Z,3.70
2022-11-15T19:49:54.093Z,3.70
2022-11-15T19:52:24.307Z,3.70
2022-11-15T19:54:52.472Z,3.70
2022-11-15T19:57:20.732Z,3.80
2022-11-15T19:59:50.387Z,3.80
2022-11-15T20:02:18.636Z,3.90
2022-11-15T20:04:46.813Z,3.80
2022-11-15T20:07:15.118Z,3.90
2022-11-15T20:09:43.670Z,3.90
2022-11-15T20:12:11.993Z,4.00
2022-11-15T20:14:45.944Z,4.10
2022-11-15T20:17:15.650Z,4.10
2022-11-15T20:19:44.865Z,4.20
2022-11-15T20:22:13.116Z,4.20
2022-11-15T20:24:41.336Z,4.20
2022-11-15T20:27:10.400Z,4.20
2022-11-15T20:29:43.687Z,4.30
2022-11-15T20:32:13.128Z,4.20
2022-11-15T20:34:42.672Z,4.20
2022-11-15T20:37:10.947Z,4.20
2022-11-15T20:39:39.429Z,4.30
2022-11-15T20:42:08.546Z,4.30
2022-11-15T20:44:36.738Z,4.30
2022-11-15T20:47:06.170Z,4.30
2022-11-15T20:49:34.377Z,4.40
2022-11-15T20:52:04.086Z,4.50
2022-11-15T20:54:32.310Z,4.60
2022-11-15T20:57:00.545Z,4.60
2022-11-15T20:59:28.816Z,4.60
2022-11-15T21:01:57.153Z,4.60
2022-11-15T21:04:25.412Z,4.70
2022-11-15T21:06:53.705Z,4.70
2022-11-15T21:09:41.224Z,4.80
2022-11-15T21:12:13.401Z,4.80
2022-11-15T21:14:42.668Z,4.80
2022-11-15T21:17:11.247Z,4.80
2022-11-15T21:19:39.718Z,4.80
2022-11-15T21:22:09.330Z,4.90
2022-11-15T21:24:39.149Z,4.90
2022-11-15T21:27:07.563Z,5.00
2022-11-15T21:29:38.736Z,5.00
2022-11-15T21:32:08.284Z,5.00
2022-11-15T21:34:36.807Z,5.00
2022-11-15T21:37:05.835Z,4.90
2022-11-15T21:39:34.239Z,5.00
2022-11-15T21:42:04.108Z,4.90
2022-11-15T21:44:32.722Z,5.00
2022-11-15T21:47:01.495Z,5.00
2022-11-15T21:49:54.603Z,5.00
2022-11-15T21:52:22.904Z,5.00
2022-11-15T21:54:51.177Z,5.00
2022-11-15T21:57:21.313Z,5.00
2022-11-15T22:00:06.825Z,5.00
2022-11-15T22:02:35.098Z,5.00
2022-11-15T22:05:03.595Z,4.90
2022-11-15T22:07:32.050Z,4.90
2022-11-15T22:10:00.332Z,4.90
2022-11-15T22:12:54.712Z,4.90
2022-11-15T22:15:23.081Z,4.90
2022-11-15T22:18:00.207Z,4.90
2022-11-15T22:20:44.142Z,4.80
2022-11-15T22:23:13.024Z,4.80
2022-11-15T22:25:41.289Z,4.70
2022-11-15T22:28:10.998Z,4.70
2022-11-15T22:30:41.006Z,4.60
2022-11-15T22:33:09.212Z,4.60
2022-11-15T22:35:37.947Z,4.60
2022-11-15T22:38:06.322Z,4.50
2022-11-15T22:40:34.919Z,4.50
2022-11-15T22:43:03.659Z,4.40
2022-11-15T22:45:33.924Z,4.50
2022-11-15T22:48:02.187Z,4.50
2022-11-15T22:50:30.613Z,4.40
2022-11-15T22:52:58.859Z,4.40
2022-11-15T22:55:27.189Z,4.30
2022-11-15T22:57:55.448Z,4.30
2022-11-15T23:00:24.017Z,4.30
2022-11-15T23:02:54.524Z,4.30
2022-11-15T23:05:23.268Z,4.20
2022-11-15T23:07:51.617Z,4.20
2022-11-15T23:10:37.675Z,4.30
2022-11-15T23:13:18.721Z,4.20
2022-11-15T23:16:06.705Z,4.20
2022-11-15T23:18:38.205Z,4.20
2022-11-15T23:21:10.514Z,4.20
2022-11-15T23:24:03.003Z,4.20
2022-11-15T23:26:31.313Z,4.20
2022-11-15T23:28:59.770Z,4.10
2022-11-15T23:31:45.521Z,4.10
2022-11-15T23:34:18.554Z,4.10
2022-11-15T23:36:50.458Z,4.20
2022-11-15T23:39:19.086Z,4.10
2022-11-15T23:41:47.373Z,4.10
2022-11-15T23:44:15.591Z,4.10
2022-11-15T23:46:43.855Z,4.20
2022-11-15T23:49:12.078Z,4.20
2022-11-15T23:51:42.098Z,4.20
2022-11-15T23:54:10.724Z,4.20
2022-11-15T23:56:39.399Z,4.30
2022-11-15T23:59:07.835Z,4.30
